• Join FlightAware (Why Join?)
  • Login
  • US Flag 
10:59PM EST


 

Airport Tracker/Info


-or-


 

Live Flight TrackerFlight Track Log ✈ AAL2446 ✈ 23-Apr-2013 ✈ KLAX - KDFW

Flight Track Log - Related Links

Times and Time Zones

All times are in EDT time to prevent confusion due to time zone crossing. See the AAL2446 flight status page for this flight to view local times or setup timezone preferences in your user account.

Time Position Orientation Groundspeed Altitude Reporting Facility
EDT Latitude Longitude Course Direction KTS MPH feet Rate Location/Type
04:22PM 33.9320 -118.4310 263° West 167 192 1,600  Level FlightAware
04:23PM 33.9270 -118.4580 257° West 211 243 2,200 1,200 Climbing FlightAware
04:23PM 33.9200 -118.4690 233° Southwest 226 260 2,500 2,100 Climbing FlightAware
04:23PM 33.9000 -118.5000 232° Southwest 262 302 3,600 3,000 Climbing FlightAware
04:24PM 33.8860 -118.5200 230° Southwest 273 314 4,500 3,180 Climbing FlightAware
04:24PM 33.8720 -118.5350 222° Southwest 279 321 5,200 3,360 Climbing FlightAware
04:24PM 33.8510 -118.5430 198° South 277 319 6,200 3,420 Climbing FlightAware
04:24PM 33.8260 -118.5420 178° South 271 312 7,500 3,240 Climbing FlightAware
04:25PM 33.7900 -118.5380 175° South 288 331 8,900 3,180 Climbing FlightAware
04:25PM 33.7630 -118.5340 173° South 296 341 9,900 2,400 Climbing FlightAware
04:26PM 33.7150 -118.5250 171° South 323 372 11,100 2,160 Climbing FlightAware
04:26PM 33.6910 -118.5030 143° Southeast 331 381 11,900 2,520 Climbing FlightAware
04:26PM 33.6810 -118.4780 116° Southeast 336 387 12,600 3,000 Climbing FlightAware
04:27PM 33.6580 -118.4030 110° East 348 400 14,700 2,880 Climbing FlightAware
04:28PM 33.6430 -118.3260 103° East 366 421 16,500 2,400 Climbing FlightAware
04:28PM 33.6430 -118.2430 90° East 391 450 17,900 2,520 Climbing FlightAware
04:29PM 33.6430 -118.1350 90° East 413 475 19,900 2,640 Climbing FlightAware
04:30PM 33.6430 -118.0210 90° East 430 495 21,900 2,460 Climbing FlightAware
04:31PM 33.6430 -117.9160 90° East 445 512 23,600 2,280 Climbing FlightAware
04:31PM 33.6420 -117.8050 91° East 460 529 25,200 2,160 Climbing FlightAware
04:32PM 33.6420 -117.7040 90° East 470 541 26,700 2,100 Climbing FlightAware
04:33PM 33.6420 -117.5990 90° East 482 555 28,000 2,100 Climbing FlightAware
04:33PM 33.6410 -117.4750 91° East 489 563 29,700 2,520 Climbing FlightAware
04:34PM 33.6400 -117.3650 91° East 484 557 31,600 2,460 Climbing FlightAware
04:35PM 33.6390 -117.2490 91° East 482 555 33,200 2,040 Climbing FlightAware
04:35PM 33.6350 -117.1430 93° East 480 552 34,500 1,680 Climbing FlightAware
04:36PM 33.6210 -117.0380 99° East 484 557 35,500 1,560 Climbing FlightAware
04:37PM 33.6090 -116.9310 98° East 484 557 36,600 1,260 Climbing FlightAware
04:38PM 33.5980 -116.8330 98° East 486 559 37,300 960 Climbing FlightAware
04:38PM 33.5870 -116.7250 97° East 490 564 38,000 1,020 Climbing FlightAware
04:39PM 33.5750 -116.6050 97° East 494 568 38,700 660 Climbing FlightAware
04:40PM 33.5610 -116.4720 97° East 504 580 39,000 180 Climbing FlightAware
04:40PM 33.5480 -116.3520 97° East 504 580 39,000  Level FlightAware
04:41PM 33.5370 -116.2450 97° East 504 580 39,000  Level FlightAware
04:42PM 33.5280 -116.1510 97° East 504 580 39,000  Level FlightAware
04:42PM 33.5180 -116.0560 97° East 504 580 39,000  Level FlightAware
04:43PM 33.5080 -115.9620 97° East 504 580 39,000  Level FlightAware
04:44PM 33.4960 -115.8440 97° East 504 580 39,000  Level FlightAware
04:45PM 33.4870 -115.7500 97° East 504 580 39,000  Level FlightAware
04:45PM 33.4770 -115.6550 97° East 504 580 39,000  Level FlightAware
04:46PM 33.4670 -115.5610 97° East 504 580 39,000  Level FlightAware
04:47PM 33.4570 -115.4670 97° East 504 580 39,000  Level FlightAware
04:47PM 33.4450 -115.3490 97° East 504 580 39,000  Level FlightAware
04:48PM 33.4360 -115.2540 96° East 504 580 39,000  Level FlightAware
04:49PM 33.4260 -115.1600 97° East 504 580 39,000  Level FlightAware
04:49PM 33.4160 -115.0660 97° East 504 580 39,000  Level FlightAware
04:50PM 33.4070 -114.9720 97° East 504 580 39,000  Level FlightAware
04:51PM 33.3310 -114.5850 103° East 39,000  Level FlightAware
04:52PM 33.3180 -114.4890 99° East 504 580 39,000  Level FlightAware
04:53PM 33.2980 -114.3320 99° East 504 580 39,000  Level FlightAware
04:54PM 33.2820 -114.2170 99° East 505 581 39,000  Level FlightAware
04:54PM 33.2660 -114.1000 99° East 505 581 39,000  Level FlightAware
04:55PM 33.2510 -113.9860 99° East 505 581 39,000  Level FlightAware
04:56PM 33.2260 -113.8060 99° East 506 582 39,000  Level FlightAware
04:57PM 33.2080 -113.6790 100° East 505 581 39,000  Level FlightAware
04:58PM 33.1870 -113.5300 100° East 504 580 39,000  Level FlightAware
04:58PM 33.1720 -113.4220 99° East 505 581 39,000  Level FlightAware
04:59PM 33.1540 -113.2980 100° East 507 583 39,000  Level FlightAware
05:00PM 33.1380 -113.1860 100° East 507 583 39,000  Level FlightAware
05:00PM 33.1210 -113.0640 99° East 507 583 39,000  Level FlightAware
05:01PM 33.1050 -112.9550 100° East 507 583 39,000  Level FlightAware
05:02PM 33.0880 -112.8440 100° East 507 583 39,000  Level FlightAware
05:03PM 33.0690 -112.7140 100° East 508 585 39,000  Level FlightAware
05:03PM 33.0530 -112.6040 100° East 508 585 39,000  Level FlightAware
05:04PM 33.0350 -112.4840 100° East 510 587 39,000  Level FlightAware
05:05PM 33.0180 -112.3730 100° East 512 589 39,000  Level FlightAware
05:05PM 33.0010 -112.2620 100° East 512 589 39,000  Level FlightAware
05:06PM 32.9820 -112.1340 100° East 513 590 39,000  Level FlightAware
05:07PM 32.9650 -112.0220 100° East 514 592 39,000  Level FlightAware
05:07PM 32.9460 -111.9000 100° East 515 593 39,000  Level FlightAware
05:08PM 32.9280 -111.7900 101° East 516 594 39,000  Level FlightAware
05:09PM 32.9110 -111.6760 100° East 516 594 39,000  Level FlightAware
05:10PM 32.8910 -111.5500 101° East 516 594 39,000  Level FlightAware
05:10PM 32.8730 -111.4390 101° East 518 596 39,000  Level FlightAware
05:11PM 32.8530 -111.3150 101° East 516 594 39,000  Level FlightAware
05:12PM 32.8350 -111.2030 101° East 517 595 39,000  Level FlightAware
05:12PM 32.8180 -111.0930 100° East 517 595 39,000  Level FlightAware
05:13PM 32.7970 -110.9640 101° East 516 594 39,000  Level FlightAware
05:14PM 32.7780 -110.8540 102° East 517 595 39,000  Level FlightAware
05:14PM 32.7600 -110.7420 101° East 517 595 39,000  Level FlightAware
05:15PM 32.7400 -110.6210 101° East 516 594 39,000  Level FlightAware
05:16PM 32.7210 -110.5100 101° East 516 594 39,000  Level FlightAware
05:16PM 32.7030 -110.3980 101° East 517 595 39,000  Level FlightAware
05:17PM 32.6810 -110.2720 102° East 515 593 39,000  Level FlightAware
05:18PM 32.6620 -110.1590 101° East 515 593 39,000  Level FlightAware
05:19PM 32.6420 -110.0370 101° East 517 595 39,000  Level FlightAware
05:19PM 32.6230 -109.9280 102° East 516 594 39,000  Level FlightAware
05:20PM 32.6010 -109.8000 101° East 517 595 39,000  Level FlightAware
05:21PM 32.5810 -109.6890 102° East 515 593 39,000  Level FlightAware
05:21PM 32.5620 -109.5760 101° East 515 593 39,000  Level FlightAware
05:22PM 32.5410 -109.4570 102° East 514 592 39,000  Level FlightAware
05:23PM 32.5210 -109.3460 102° East 514 592 39,000  Level FlightAware
05:24PM 32.4990 -109.2200 102° East 514 592 39,000  Level FlightAware
05:24PM 32.4800 -109.1170 102° East 513 590 39,000  Level FlightAware
05:25PM 32.4600 -109.0000 101° East 511 588 39,000  Level FlightAware
05:26PM 32.4380 -108.8810 102° East 508 585 39,000  Level FlightAware
05:26PM 32.4180 -108.7720 102° East 509 586 39,000  Level FlightAware
05:27PM 32.3980 -108.6640 102° East 507 583 39,000  Level FlightAware
05:28PM 32.3760 -108.5390 102° East 508 585 39,000  Level FlightAware
05:28PM 32.3590 -108.4440 102° East 507 583 39,000  Level FlightAware
05:29PM 32.3350 -108.3060 102° East 506 582 39,000  Level FlightAware
05:30PM 32.3190 -108.2130 101° East 506 582 39,000  Level FlightAware
05:32PM 32.2590 -107.9140 103° East 505 581 39,000  Level FlightAware
05:32PM 32.2420 -107.8110 101° East 505 581 39,000  Level FlightAware
05:33PM 32.2270 -107.7190 101° East 505 581 39,000  Level FlightAware
05:34PM 32.2120 -107.6260 101° East 505 581 39,000  Level FlightAware
05:34PM 32.1930 -107.5110 101° East 505 581 39,000  Level FlightAware
05:35PM 32.1780 -107.4190 101° East 505 581 39,000  Level FlightAware
05:36PM 32.1630 -107.3270 101° East 505 581 39,000  Level FlightAware
05:36PM 32.1470 -107.2350 102° East 505 581 39,000  Level FlightAware
05:37PM 32.1320 -107.1430 101° East 505 581 39,000  Level FlightAware
05:38PM 32.0600 -106.8820 108° East 521 600 39,000  Level FlightAware
05:39PM 32.0370 -106.7650 103° East 522 601 39,000  Level FlightAware
05:39PM 32.0140 -106.6480 103° East 522 601 39,000  Level FlightAware
05:40PM 31.9900 -106.5310 104° East 522 601 39,000  Level FlightAware
05:41PM 31.9680 -106.4210 103° East 523 602 39,000  Level FlightAware
05:42PM 31.9400 -106.2810 103° East 524 603 39,000  Level FlightAware
05:43PM 31.9370 -106.1110 91° East 526 605 39,000  Level FlightAware
05:43PM 31.9340 -106.0140 92° East 526 605 39,000  Level FlightAware
05:44PM 31.9310 -105.9160 92° East 526 605 39,000  Level FlightAware
05:45PM 31.9280 -105.8190 92° East 526 605 39,000  Level FlightAware
05:45PM 31.9250 -105.7220 92° East 526 605 39,000  Level FlightAware
05:46PM 31.9220 -105.6000 92° East 526 605 39,000  Level FlightAware
05:47PM 31.9190 -105.5020 92° East 526 605 39,000  Level FlightAware
05:47PM 31.9160 -105.4050 92° East 526 605 39,000  Level FlightAware
05:48PM 31.9130 -105.3080 92° East 526 605 39,000  Level FlightAware
05:49PM 31.9100 -105.2100 92° East 526 605 39,000  Level FlightAware
05:50PM 31.9070 -105.0880 92° East 526 605 39,000  Level FlightAware
05:50PM 31.9040 -104.9910 92° East 526 605 39,000  Level FlightAware
05:51PM 31.9010 -104.8940 92° East 526 605 39,000  Level FlightAware
05:52PM 31.8980 -104.7960 92° East 526 605 39,000  Level FlightAware
05:52PM 31.9144 -104.4975 92° East 506 582 39,000  Level Albuquerque Center
05:53PM 31.9097 -104.2997 92° East 504 580 39,000  Level Albuquerque Center
05:54PM 31.9053 -104.1328 92° East 507 583 39,000  Level Albuquerque Center
05:55PM 31.8992 -103.9725 93° East 512 589 39,000  Level Albuquerque Center
06:01PM 31.8910 -103.0120 93° East 527 606 39,000  Level FlightAware
06:02PM 31.9040 -102.9100 81° East 528 608 39,000  Level FlightAware
06:02PM 31.9190 -102.7990 81° East 528 608 39,000  Level FlightAware
06:03PM 31.9350 -102.6450 83° East 529 609 39,000  Level FlightAware
06:04PM 31.9460 -102.5470 82° East 530 610 39,000  Level FlightAware
06:04PM 31.9580 -102.4500 82° East 530 610 39,000  Level FlightAware
06:05PM 31.9720 -102.3280 82° East 530 610 39,000  Level FlightAware
06:06PM 31.9840 -102.2310 82° East 530 610 39,000  Level FlightAware
06:07PM 31.9950 -102.1340 82° East 530 610 39,000  Level FlightAware
06:07PM 32.0150 -101.9280 83° East 531 611 39,000  Level FlightAware
06:08PM 32.0270 -101.8120 83° East 529 609 39,000  Level FlightAware
06:09PM 32.0410 -101.6810 83° East 529 609 39,000  Level FlightAware
06:09PM 32.0530 -101.5660 83° East 528 608 39,000  Level FlightAware
06:10PM 32.0670 -101.4400 82° East 527 606 39,000  Level FlightAware
06:11PM 32.0780 -101.3270 83° East 526 605 39,000  Level FlightAware
06:12PM 32.0900 -101.2140 83° East 525 604 39,000  Level FlightAware
06:12PM 32.1030 -101.0820 83° East 525 604 39,000  Level FlightAware
06:13PM 32.1150 -100.9690 83° East 526 605 39,000  Level FlightAware
06:14PM 32.1270 -100.8430 84° East 527 606 39,000  Level FlightAware
06:14PM 32.1390 -100.7290 83° East 527 606 39,000  Level FlightAware
06:15PM 32.1500 -100.6180 83° East 529 609 39,000  Level FlightAware
06:16PM 32.1630 -100.4810 84° East 528 608 39,000  Level FlightAware
06:16PM 32.1730 -100.3730 84° East 527 606 39,000 -120 Level FlightAware
06:17PM 32.1850 -100.2530 83° East 524 603 38,900 -540 Descending FlightAware
06:18PM 32.1960 -100.1300 84° East 521 600 38,300 -1,140 Descending FlightAware
06:19PM 32.2070 -100.0160 83° East 524 603 37,400 -1,200 Descending FlightAware
06:19PM 32.2190 -99.8870 84° East 523 602 36,600 -1,080 Descending FlightAware
06:20PM 32.2220 -99.7720 88° East 518 596 35,900 -1,020 Descending FlightAware
06:21PM 32.2180 -99.6460 92° East 515 593 35,200 -960 Descending FlightAware
06:21PM 32.2140 -99.5350 92° East 513 590 34,600 -1,080 Descending FlightAware
06:22PM 32.2100 -99.4200 92° East 514 592 33,800 -1,080 Descending FlightAware
06:23PM 32.2060 -99.3010 92° East 513 590 33,100 -1,080 Descending FlightAware
06:23PM 32.2020 -99.1880 92° East 512 589 32,300 -1,860 Descending FlightAware
06:24PM 32.1970 -99.0610 93° East 512 589 30,500 -2,400 Descending FlightAware
06:25PM 32.1930 -98.9500 92° East 504 580 28,900 -2,280 Descending FlightAware
06:26PM 32.1880 -98.8400 93° East 493 567 27,500 -2,100 Descending FlightAware
06:26PM 32.1840 -98.7260 92° East 480 552 26,000 -1,980 Descending FlightAware
06:27PM 32.1800 -98.6240 93° East 469 540 24,700 -2,100 Descending FlightAware
06:28PM 32.1750 -98.5190 93° East 459 528 23,200 -2,520 Descending FlightAware
06:28PM 32.1700 -98.4050 93° East 459 528 21,200 -2,280 Descending FlightAware
06:29PM 32.1660 -98.3100 93° East 449 517 20,000 -1,860 Descending FlightAware
06:30PM 32.1620 -98.2260 93° East 435 501 18,900 -1,860 Descending FlightAware
06:31PM 32.1580 -98.1250 93° East 420 483 17,100 -1,800 Descending FlightAware
06:31PM 32.1510 -97.9870 93° East 402 463 15,800 -1,980 Descending FlightAware
06:32PM 32.1550 -97.8990 87° East 406 467 14,300 -2,280 Descending FlightAware
06:33PM 32.1870 -97.8430 56° Northeast 406 467 13,200 -1,980 Descending FlightAware
06:33PM 32.2550 -97.7610 46° Northeast 397 457 11,500 -1,440 Descending FlightAware
06:34PM 32.3150 -97.6900 45° Northeast 368 423 10,800 -660 Descending FlightAware
06:35PM 32.3550 -97.6420 45° Northeast 344 396 10,600 -780 Descending FlightAware
06:36PM 32.4090 -97.5770 45° Northeast 329 379 9,700 -1,200 Descending FlightAware
06:36PM 32.4370 -97.5430 46° Northeast 326 375 9,200 -1,140 Descending FlightAware
06:37PM 32.4680 -97.5060 45° Northeast 316 364 8,700 -900 Descending FlightAware
06:37PM 32.4900 -97.4750 50° Northeast 305 351 8,400 -900 Descending FlightAware
06:37PM 32.4940 -97.4520 78° East 298 343 8,100 -1,620 Descending FlightAware
06:38PM 32.4920 -97.4000 93° East 292 336 7,200 -1,980 Descending FlightAware
06:38PM 32.4910 -97.3630 92° East 289 333 6,300 -2,160 Descending FlightAware
06:38PM 32.4910 -97.3310 90° East 288 331 5,600 -1,620 Descending FlightAware
06:39PM 32.4970 -97.2930 79° East 293 337 5,100 -840 Descending FlightAware
06:39PM 32.5150 -97.2590 58° Northeast 292 336 4,900 -600 Descending FlightAware
06:40PM 32.5380 -97.2210 54° Northeast 288 331 4,600 -840 Descending FlightAware
06:40PM 32.5610 -97.1840 54° Northeast 282 325 4,100 -1,020 Descending FlightAware
06:41PM 32.5790 -97.1540 55° Northeast 276 318 3,700 -1,020 Descending FlightAware
06:41PM 32.6010 -97.1190 53° Northeast 265 305 3,200 -960 Descending FlightAware
06:41PM 32.6180 -97.1070 31° Northeast 259 298 3,000 -780 Descending FlightAware
06:42PM 32.6430 -97.0910 28° Northeast 238 274 2,700 -900 Descending FlightAware
06:42PM 32.6720 -97.0720 29° Northeast 229 264 2,200 -600 Descending FlightAware
06:43PM 32.6950 -97.0670 10° North 193 222 2,200  Level FlightAware
06:43PM 32.7150 -97.0670 360° North 176 203 2,200  Level FlightAware
06:44PM 32.7330 -97.0660 North 177 204 2,200  Level FlightAware
06:44PM 32.7480 -97.0660 360° North 174 200 2,200  Level FlightAware
06:44PM 32.7720 -97.0660 360° North 160 184 2,200 -420 Level FlightAware
06:45PM 32.8090 -97.0650 North 132 152 1,600 -480 Descending FlightAware
06:46PM 32.8250 -97.0660 357° North 132 152 1,500 -240 Descending FlightAware